Time;durP1;ratioP1;P1;durP2;ratioP2;P2;SDS_P1;SDS_P2;PMS_P1;PMS_P2;Temp;Humidity;BMP_temperature;BMP_pressure;BME280_temperature;BME280_humidity;BME280_pressure;Samples;Min_cycle;Max_cycle;Signal;HPM_P1;HPM_P2
2022/11/15 00:01:09;;;;;;;73.65;42.50;;;;;;;10.79;76.44;101679.97;4890849;29;20063;-78
2022/11/15 00:03:36;;;;;;;71.20;40.55;;;;;;;11.02;76.79;101728.75;4886875;29;20427;-79
2022/11/15 00:06:06;;;;;;;70.43;40.00;;;;;;;10.94;76.51;101709.88;4885087;29;20121;-80
2022/11/15 00:08:33;;;;;;;68.63;40.13;;;;;;;10.79;76.01;101691.44;4887397;29;20075;-78
2022/11/15 00:11:04;;;;;;;74.80;41.90;;;;;;;10.94;76.27;101715.19;4890874;29;20087;-79
2022/11/15 00:13:32;;;;;;;71.22;40.95;;;;;;;10.88;76.29;101716.47;4889931;29;20476;-80
2022/11/15 00:16:01;;;;;;;68.75;40.00;;;;;;;10.61;76.48;101690.13;4891978;29;20604;-79
2022/11/15 00:18:29;;;;;;;70.50;41.00;;;;;;;10.78;76.56;101716.31;4890725;29;20633;-79
2022/11/15 00:21:04;;;;;;;68.38;39.28;;;;;;;10.78;77.19;101711.00;4889955;29;20056;-80
2022/11/15 00:23:30;;;;;;;72.95;42.38;;;;;;;10.69;77.28;101696.56;4887246;29;20052;-79
2022/11/15 00:25:58;;;;;;;72.80;42.00;;;;;;;10.55;77.11;101680.75;4889933;29;20597;-79
2022/11/15 00:28:35;;;;;;;75.50;41.13;;;;;;;10.66;77.01;101711.88;4885498;29;20450;-78
2022/11/15 00:31:13;;;;;;;74.28;40.30;;;;;;;10.65;77.48;101691.56;4892148;29;20051;-78
2022/11/15 00:33:43;;;;;;;77.35;44.17;;;;;;;10.72;77.41;101694.63;4892449;29;20075;-79
2022/11/15 00:36:10;;;;;;;80.97;44.63;;;;;;;10.80;76.81;101693.13;4890451;29;20520;-81
2022/11/15 00:38:49;;;;;;;74.90;42.28;;;;;;;10.73;76.71;101677.72;4889133;29;20051;-79
2022/11/15 00:41:15;;;;;;;77.13;43.03;;;;;;;10.67;76.63;101676.38;4888149;29;20154;-80
2022/11/15 00:43:43;;;;;;;83.03;43.22;;;;;;;10.65;77.23;101688.91;4892783;29;20064;-76
2022/11/15 00:46:10;;;;;;;80.07;44.47;;;;;;;10.28;77.77;101633.16;4888006;29;20310;-77
2022/11/15 00:48:37;;;;;;;74.55;42.17;;;;;;;10.37;77.93;101648.44;4903649;29;20385;-79
2022/11/15 00:51:04;;;;;;;73.85;42.75;;;;;;;10.57;77.21;101686.81;4889958;29;20087;-78
2022/11/15 00:53:30;;;;;;;77.65;43.17;;;;;;;10.36;78.02;101667.94;4889764;29;20048;-77
2022/11/15 00:56:01;;;;;;;75.13;43.88;;;;;;;10.44;77.74;101689.50;4887545;29;20054;-77
2022/11/15 00:58:28;;;;;;;80.95;43.65;;;;;;;10.25;78.20;101665.19;4887779;29;20498;-79
2022/11/15 01:00:56;;;;;;;79.90;43.45;;;;;;;10.36;78.38;101686.53;4889602;29;20060;-78
2022/11/15 01:03:23;;;;;;;83.95;44.45;;;;;;;10.39;77.96;101689.00;4889128;29;20062;-78
2022/11/15 01:05:50;;;;;;;85.15;44.60;;;;;;;10.34;77.96;101685.81;4891796;29;20608;-78
2022/11/15 01:08:17;;;;;;;81.10;43.33;;;;;;;10.27;78.14;101677.41;4889095;29;20056;-79
2022/11/15 01:10:44;;;;;;;89.47;45.10;;;;;;;10.21;78.25;101666.34;4891008;29;20254;-79
2022/11/15 01:13:11;;;;;;;83.30;44.83;;;;;;;10.36;77.72;101691.00;4908412;29;20441;-77
2022/11/15 01:15:40;;;;;;;79.93;43.40;;;;;;;10.18;78.03;101654.16;4910046;29;20154;-78
2022/11/15 01:18:07;;;;;;;82.47;41.60;;;;;;;10.33;77.73;101684.09;4909291;29;20483;-78
2022/11/15 01:20:34;;;;;;;78.30;43.00;;;;;;;10.32;78.05;101687.72;4888056;29;20450;-78
2022/11/15 01:23:03;;;;;;;77.97;44.10;;;;;;;10.32;77.50;101679.75;4894338;29;20059;-80
2022/11/15 01:25:29;;;;;;;78.82;42.15;;;;;;;10.34;77.55;101688.47;4906126;28;20535;-79
2022/11/15 01:27:56;;;;;;;73.90;39.97;;;;;;;9.92;77.50;101613.53;4892484;29;20214;-79
2022/11/15 01:30:23;;;;;;;70.75;40.58;;;;;;;10.12;77.20;101644.00;4891009;29;20056;-79
2022/11/15 01:32:53;;;;;;;77.05;41.92;;;;;;;10.08;77.54;101641.66;4891906;29;20054;-78
2022/11/15 01:35:20;;;;;;;78.13;40.58;;;;;;;10.26;77.18;101672.19;4886624;29;20062;-77
2022/11/15 01:37:47;;;;;;;84.25;41.63;;;;;;;10.28;76.76;101675.63;4892671;29;20242;-79
2022/11/15 01:40:14;;;;;;;78.53;40.78;;;;;;;10.21;77.16;101669.00;4893643;29;20736;-79
2022/11/15 01:42:41;;;;;;;76.07;40.20;;;;;;;10.18;77.78;101662.13;4886130;29;20059;-79
2022/11/15 01:45:15;;;;;;;78.55;40.92;;;;;;;10.17;77.44;101652.47;4885284;29;20139;-77
2022/11/15 01:47:55;;;;;;;69.95;39.70;;;;;;;9.75;77.65;101587.34;4885924;29;20066;-78
2022/11/15 01:50:32;;;;;;;72.18;39.30;;;;;;;10.19;77.58;101670.91;4889562;29;20067;-78
2022/11/15 01:52:59;;;;;;;75.38;40.80;;;;;;;10.13;77.30;101666.06;4889408;29;20235;-76
2022/11/15 01:55:30;;;;;;;76.18;41.60;;;;;;;10.06;77.33;101650.56;4887600;29;20052;-77
2022/11/15 01:58:01;;;;;;;71.90;40.70;;;;;;;10.05;77.50;101650.69;4881286;29;20669;-77
2022/11/15 02:00:30;;;;;;;70.55;37.03;;;;;;;10.10;77.79;101652.97;4902799;29;20066;-80
2022/11/15 02:02:57;;;;;;;74.05;39.90;;;;;;;10.08;78.10;101646.97;4893009;29;20071;-79
2022/11/15 02:05:24;;;;;;;76.20;40.30;;;;;;;10.02;78.15;101638.47;4869929;29;20493;-79
2022/11/15 02:07:55;;;;;;;70.05;37.42;;;;;;;9.90;77.89;101628.69;4859273;29;20641;-78
2022/11/15 02:10:29;;;;;;;76.45;40.20;;;;;;;9.90;77.34;101628.69;4854695;29;20453;-77
2022/11/15 02:13:09;;;;;;;72.53;39.83;;;;;;;10.10;77.73;101656.50;4838315;29;20463;-78
2022/11/15 02:16:07;;;;;;;72.07;38.60;;;;;;;9.47;77.85;101541.56;4864289;29;20213;-78
2022/11/15 02:18:55;;;;;;;73.55;39.83;;;;;;;10.09;77.96;101653.94;4858117;29;20733;-80
2022/11/15 02:21:22;;;;;;;74.28;40.95;;;;;;;10.11;78.61;101654.69;4855397;29;20570;-77
2022/11/15 02:23:56;;;;;;;72.32;39.05;;;;;;;10.12;77.59;101648.41;4836668;29;20086;-78
2022/11/15 02:26:37;;;;;;;74.80;38.08;;;;;;;10.11;77.92;101644.91;4822629;29;20076;-78
2022/11/15 02:29:26;;;;;;;73.18;38.88;;;;;;;10.00;77.54;101619.16;4830376;29;20048;-78
2022/11/15 02:32:13;;;;;;;75.68;39.97;;;;;;;10.06;77.46;101645.25;4829020;29;20481;-76
2022/11/15 02:35:21;;;;;;;68.05;37.25;;;;;;;10.02;77.68;101642.91;4840408;29;20599;-77
2022/11/15 02:38:06;;;;;;;70.60;38.65;;;;;;;9.82;77.79;101609.81;4831296;29;20908;-79
2022/11/15 02:41:00;;;;;;;71.05;38.55;;;;;;;9.89;78.14;101627.00;4836607;29;20876;-79
2022/11/15 02:44:02;;;;;;;70.72;38.85;;;;;;;9.92;77.93;101631.25;4839226;29;20367;-77
2022/11/15 02:50:12;;;;;;;67.43;36.05;;;;;;;9.54;78.21;101553.44;4817235;29;20063;-78
2022/11/15 02:52:49;;;;;;;66.35;35.35;;;;;;;10.10;77.71;101619.38;4817829;29;20526;-78
2022/11/15 02:55:35;;;;;;;61.20;35.33;;;;;;;10.43;77.97;101615.28;4820333;29;20066;-78
2022/11/15 02:58:24;;;;;;;73.55;38.78;;;;;;;10.47;76.31;101608.78;4819528;29;20410;-79
2022/11/15 03:01:24;;;;;;;68.47;35.35;;;;;;;10.36;75.91;101608.72;4819936;29;20337;-78
2022/11/15 03:04:07;;;;;;;71.10;39.80;;;;;;;10.24;76.04;101594.47;4822097;29;20138;-77
2022/11/15 03:07:13;;;;;;;72.43;37.97;;;;;;;10.09;76.27;101590.28;4822352;29;20199;-78
2022/11/15 03:10:01;;;;;;;64.78;36.70;;;;;;;9.73;76.26;101541.53;4831446;29;20555;-77
2022/11/15 03:12:38;;;;;;;65.32;35.80;;;;;;;10.15;77.41;101595.16;4834995;29;20060;-78
2022/11/15 03:15:41;;;;;;;65.93;35.20;;;;;;;10.03;76.80;101586.25;4822437;29;20465;-78
2022/11/15 03:18:21;;;;;;;62.95;34.22;;;;;;;10.05;77.27;101590.50;4837176;29;20562;-77
2022/11/15 03:21:02;;;;;;;73.13;37.78;;;;;;;9.89;77.36;101551.91;4841871;29;20254;-77
2022/11/15 03:23:40;;;;;;;65.50;36.17;;;;;;;10.00;76.98;101576.72;4845761;29;20059;-79
2022/11/15 03:26:16;;;;;;;68.15;35.92;;;;;;;9.89;76.92;101536.84;4831005;29;20549;-77
2022/11/15 03:29:05;;;;;;;67.20;37.80;;;;;;;10.08;77.09;101556.75;4829745;29;20373;-78
2022/11/15 03:31:50;;;;;;;72.32;36.78;;;;;;;10.03;76.69;101560.56;4834260;29;20379;-78
2022/11/15 03:34:53;;;;;;;70.68;36.47;;;;;;;9.91;77.19;101550.84;4822845;29;20059;-79
2022/11/15 03:37:25;;;;;;;69.22;36.88;;;;;;;9.54;77.34;101471.25;4829261;29;20063;-79
2022/11/15 03:39:56;;;;;;;67.18;34.95;;;;;;;9.93;77.06;101533.00;4844622;29;20083;-79
2022/11/15 03:43:04;;;;;;;67.20;35.58;;;;;;;10.08;75.83;101556.75;4829135;29;20056;-77
2022/11/15 03:46:04;;;;;;;57.25;34.22;;;;;;;10.16;76.07;101572.97;4815458;29;20462;-78
2022/11/15 03:48:48;;;;;;;63.53;35.10;;;;;;;10.12;76.23;101579.44;4825549;29;20051;-77
2022/11/15 03:51:27;;;;;;;66.32;36.03;;;;;;;10.01;76.13;101577.56;4826956;29;20083;-78
2022/11/15 03:54:08;;;;;;;65.72;35.10;;;;;;;9.83;76.21;101556.69;4859185;28;20056;-79
2022/11/15 03:56:40;;;;;;;62.92;34.67;;;;;;;9.96;76.65;101585.84;4833024;29;20330;-80
2022/11/15 03:59:08;;;;;;;60.63;33.00;;;;;;;9.96;76.66;101571.72;4843996;29;20471;-79
2022/11/15 04:01:38;;;;;;;60.90;33.22;;;;;;;10.03;76.30;101576.50;4832953;29;20713;-79
2022/11/15 04:04:11;;;;;;;52.55;30.83;;;;;;;10.03;75.62;101579.16;4826799;29;20051;-79
2022/11/15 04:06:41;;;;;;;50.80;30.33;;;;;;;9.90;75.14;101559.72;4823672;29;20760;-76
2022/11/15 04:09:12;;;;;;;51.00;29.55;;;;;;;9.99;75.35;101575.00;4830003;29;20056;-79
2022/11/15 04:11:49;;;;;;;66.43;32.30;;;;;;;9.62;75.56;101529.88;4831650;29;20978;-77
2022/11/15 04:14:27;;;;;;;59.67;33.20;;;;;;;9.76;75.23;101581.94;4830219;29;20380;-76
2022/11/15 04:17:01;;;;;;;61.17;32.53;;;;;;;9.52;75.69;101560.63;4812518;29;20060;-78
2022/11/15 04:25:22;;;;;;;53.58;30.27;;;;;;;9.35;77.22;101548.53;4820661;29;20206;-79
2022/11/15 04:28:00;;;;;;;50.15;30.75;;;;;;;9.53;77.22;101572.91;4836188;29;20186;-76
2022/11/15 04:30:33;;;;;;;53.42;29.88;;;;;;;9.67;76.69;101579.94;4818350;29;20477;-76
2022/11/15 04:33:06;;;;;;;53.53;30.42;;;;;;;9.61;76.38;101573.25;4824780;29;20057;-77
2022/11/15 04:35:37;;;;;;;57.30;30.42;;;;;;;9.51;76.63;101545.66;4825365;29;20509;-78
2022/11/15 04:38:07;;;;;;;55.08;29.92;;;;;;;9.59;76.09;101556.59;4842907;29;20069;-77
2022/11/15 04:40:41;;;;;;;52.80;30.13;;;;;;;9.58;76.22;101552.25;4852914;29;20562;-78
2022/11/15 04:43:17;;;;;;;55.33;30.27;;;;;;;9.62;76.26;101548.44;4834087;29;20051;-77
2022/11/15 04:45:49;;;;;;;51.80;30.00;;;;;;;9.71;76.62;101564.63;4841204;29;20114;-78
2022/11/15 04:48:22;;;;;;;47.38;27.83;;;;;;;9.68;76.05;101559.56;4853965;29;20039;-79
2022/11/15 04:50:53;;;;;;;49.38;28.00;;;;;;;9.59;76.02;101555.75;4840660;29;20474;-76
2022/11/15 04:53:29;;;;;;;49.88;29.17;;;;;;;9.51;76.19;101544.81;4848602;29;20410;-78
2022/11/15 04:56:01;;;;;;;54.05;30.65;;;;;;;9.54;76.70;101561.38;4846371;29;20044;-76
2022/11/15 04:58:27;;;;;;;53.15;30.35;;;;;;;9.38;76.26;101536.88;4839798;29;20935;-78
2022/11/15 05:01:07;;;;;;;48.42;28.63;;;;;;;9.40;76.26;101546.41;4840058;29;20476;-76
2022/11/15 05:06:31;;;;;;;56.95;31.83;;;;;;;9.50;76.71;101559.03;4816956;29;20056;-77
2022/11/15 05:09:03;;;;;;;48.78;29.58;;;;;;;9.46;77.06;101555.75;4824573;29;20131;-79
2022/11/15 05:11:36;;;;;;;53.63;29.95;;;;;;;9.33;76.94;101546.94;4828825;29;20055;-79
2022/11/15 05:14:06;;;;;;;55.30;30.15;;;;;;;9.42;77.33;101554.28;4842478;29;20378;-79
2022/11/15 05:16:37;;;;;;;55.90;28.40;;;;;;;9.05;77.22;101487.88;4841575;29;20086;-77
2022/11/15 05:19:15;;;;;;;53.63;28.83;;;;;;;9.41;77.42;101547.25;4835406;29;20057;-79
2022/11/15 05:21:46;;;;;;;53.65;30.52;;;;;;;9.20;77.33;101516.00;4827654;29;20330;-80
2022/11/15 05:24:18;;;;;;;54.40;30.23;;;;;;;9.31;77.46;101544.41;4835234;29;20051;-77
2022/11/15 05:26:45;;;;;;;57.67;30.52;;;;;;;9.36;77.27;101575.88;4835446;29;20175;-77
2022/11/15 05:29:14;;;;;;;59.08;33.60;;;;;;;9.29;77.57;101558.72;4822445;29;20052;-79
2022/11/15 05:31:42;;;;;;;67.35;33.42;;;;;;;9.41;77.87;101568.47;4830513;29;20052;-78
2022/11/15 05:34:09;;;;;;;61.65;31.63;;;;;;;9.38;77.79;101558.09;4832836;29;20521;-77
2022/11/15 05:36:46;;;;;;;69.68;34.63;;;;;;;9.36;77.72;101549.38;4818759;29;20134;-78
2022/11/15 05:39:22;;;;;;;64.65;34.47;;;;;;;9.42;77.93;101551.63;4853592;29;20187;-80
2022/11/15 05:42:12;;;;;;;64.78;33.85;;;;;;;9.56;78.01;101546.22;4830934;29;20090;-79
2022/11/15 05:44:51;;;;;;;63.72;34.33;;;;;;;9.77;77.62;101569.53;4823242;29;20102;-79
2022/11/15 05:47:30;;;;;;;66.07;35.40;;;;;;;9.78;77.30;101556.16;4844842;29;20888;-79
2022/11/15 05:50:05;;;;;;;60.70;33.25;;;;;;;9.85;78.27;101551.25;4836217;29;20066;-79
2022/11/15 05:52:37;;;;;;;64.07;34.35;;;;;;;9.84;77.00;101552.22;4853837;29;20749;-78
2022/11/15 05:55:11;;;;;;;52.08;32.13;;;;;;;9.80;76.42;101542.78;4828763;29;20263;-80
2022/11/15 05:57:51;;;;;;;61.55;32.55;;;;;;;9.98;75.94;101557.41;4825250;29;20075;-77
2022/11/15 06:00:22;;;;;;;59.63;32.55;;;;;;;9.77;76.48;101519.13;4841316;29;20146;-78
2022/11/15 06:03:00;;;;;;;72.68;34.72;;;;;;;9.86;76.06;101547.66;4836430;29;20280;-77
2022/11/15 06:05:33;;;;;;;71.82;35.47;;;;;;;9.66;76.42;101519.03;4840178;29;20520;-80
2022/11/15 06:08:09;;;;;;;63.95;33.42;;;;;;;9.87;76.25;101554.66;4844845;28;20889;-78
2022/11/15 06:10:42;;;;;;;61.85;34.47;;;;;;;9.73;76.25;101536.22;4836348;29;20247;-77
2022/11/15 06:13:14;;;;;;;64.28;35.70;;;;;;;9.79;76.08;101541.94;4827741;29;20555;-79
2022/11/15 06:15:47;;;;;;;65.53;33.05;;;;;;;9.95;76.35;101524.94;4814023;29;20106;-77
2022/11/15 06:18:24;;;;;;;64.25;33.22;;;;;;;10.24;75.69;101557.31;4827529;29;20241;-77
2022/11/15 06:21:06;;;;;;;60.83;32.88;;;;;;;10.34;75.73;101534.53;4828853;29;20170;-77
2022/11/15 06:23:37;;;;;;;72.15;34.58;;;;;;;10.42;74.72;101539.25;4846961;29;20059;-76
2022/11/15 06:26:11;;;;;;;64.63;33.40;;;;;;;10.26;74.39;101540.31;4824539;29;20522;-77
2022/11/15 06:28:40;;;;;;;62.17;33.75;;;;;;;9.91;75.07;101497.78;4871063;28;20368;-78
2022/11/15 06:31:14;;;;;;;62.58;32.90;;;;;;;10.12;75.69;101536.97;4827300;29;20254;-77
2022/11/15 06:33:51;;;;;;;59.63;32.70;;;;;;;10.21;75.43;101550.44;4854149;28;20218;-78
2022/11/15 06:36:21;;;;;;;63.15;34.28;;;;;;;10.33;74.81;101562.00;4849779;29;20197;-77
2022/11/15 06:38:53;;;;;;;65.32;34.63;;;;;;;10.21;75.02;101554.91;4870930;29;20544;-76
2022/11/15 06:41:23;;;;;;;60.13;31.83;;;;;;;10.27;75.20;101573.03;4862751;29;20318;-76
2022/11/15 06:43:50;;;;;;;66.38;32.65;;;;;;;10.24;75.38;101555.53;4856930;29;20067;-77
2022/11/15 06:46:17;;;;;;;58.00;31.23;;;;;;;10.32;74.65;101560.31;4826338;29;20147;-77
2022/11/15 06:48:50;;;;;;;58.03;32.22;;;;;;;10.34;74.54;101574.34;4843640;29;20060;-76
2022/11/15 06:51:23;;;;;;;62.00;32.55;;;;;;;10.16;75.02;101541.97;4847256;29;20210;-78
2022/11/15 06:53:51;;;;;;;67.30;33.42;;;;;;;10.37;75.75;101560.81;4866233;29;20163;-77
2022/11/15 06:56:23;;;;;;;67.15;32.65;;;;;;;10.05;75.31;101488.84;4865172;29;20062;-77
2022/11/15 06:59:09;;;;;;;58.03;31.70;;;;;;;10.36;74.86;101545.84;4857789;29;20244;-76
2022/11/15 07:01:43;;;;;;;70.55;31.90;;;;;;;10.39;74.68;101548.31;4844361;29;20262;-77
2022/11/15 07:07:40;;;;;;;70.03;31.67;;;;;;;10.36;75.45;101542.34;4875033;29;20458;-79
2022/11/15 07:10:08;;;;;;;60.28;32.05;;;;;;;10.48;75.23;101560.91;4862100;29;20056;-80
2022/11/15 07:12:35;;;;;;;64.40;32.75;;;;;;;10.45;75.31;101558.44;4829734;29;20332;-78
2022/11/15 07:15:06;;;;;;;59.50;33.05;;;;;;;10.40;75.81;101552.63;4851127;29;20526;-75
2022/11/15 07:17:37;;;;;;;64.60;34.45;;;;;;;10.44;75.58;101548.81;4842523;29;20302;-77
2022/11/15 07:20:13;;;;;;;61.78;32.33;;;;;;;10.40;75.61;101542.03;4811168;29;20420;-78
2022/11/15 07:22:47;;;;;;;67.32;34.17;;;;;;;10.48;75.56;101560.91;4819170;29;20310;-78
2022/11/15 07:25:14;;;;;;;63.38;33.85;;;;;;;10.52;75.75;101550.88;4809989;29;20462;-78
2022/11/15 07:27:40;;;;;;;70.05;36.15;;;;;;;10.56;76.05;101546.19;4825820;29;20167;-79
2022/11/15 07:30:10;;;;;;;73.97;35.20;;;;;;;10.65;76.54;101558.78;4807645;29;20602;-78
2022/11/15 07:32:44;;;;;;;61.55;34.53;;;;;;;10.72;76.00;101568.00;4826683;29;20896;-77
2022/11/15 07:35:22;;;;;;;75.38;36.60;;;;;;;10.59;76.17;101535.38;4812572;29;20416;-77
2022/11/15 07:38:03;;;;;;;66.82;36.15;;;;;;;10.59;76.32;101527.41;4823056;29;20159;-78
2022/11/15 07:40:36;;;;;;;78.60;36.05;;;;;;;10.57;76.86;101532.81;4830274;29;20055;-79
2022/11/15 07:43:12;;;;;;;192.13;48.45;;;;;;;10.60;76.65;101552.97;4821260;29;20166;-84
2022/11/15 07:45:42;;;;;;;85.32;39.30;;;;;;;10.32;77.16;101501.94;4837487;29;20066;-85
2022/11/15 07:48:09;;;;;;;86.30;38.65;;;;;;;10.65;77.71;101556.13;4825921;29;20390;-82
2022/11/15 07:50:36;;;;;;;80.85;37.33;;;;;;;10.69;77.05;101560.28;4838643;29;20448;-81
2022/11/15 07:53:03;;;;;;;94.65;39.28;;;;;;;10.40;77.43;101510.16;4850412;29;20131;-82
2022/11/15 07:55:40;;;;;;;80.45;35.53;;;;;;;10.53;77.51;101525.19;4834648;29;20941;-81
2022/11/15 07:58:13;;;;;;;70.03;36.58;;;;;;;10.59;77.04;101532.72;4881011;29;20275;-81
2022/11/15 08:00:52;;;;;;;69.38;37.15;;;;;;;10.69;77.48;101525.75;4835648;29;20389;-78
2022/11/15 08:03:30;;;;;;;68.43;36.08;;;;;;;10.66;76.16;101510.06;4830789;29;20318;-80
2022/11/15 08:06:04;;;;;;;73.40;38.08;;;;;;;11.04;75.70;101570.06;4840359;29;20517;-80
2022/11/15 08:08:40;;;;;;;81.20;37.25;;;;;;;11.04;75.01;101556.78;4857643;29;20147;-79
2022/11/15 08:11:11;;;;;;;66.85;35.75;;;;;;;10.99;75.39;101545.66;4880857;29;20135;-79
2022/11/15 08:13:44;;;;;;;78.72;40.20;;;;;;;11.10;74.97;101553.66;4848817;29;20497;-79
2022/11/15 08:16:15;;;;;;;72.53;39.75;;;;;;;11.11;76.05;101547.38;4861294;29;20313;-78
2022/11/15 08:18:44;;;;;;;73.78;37.40;;;;;;;10.98;76.28;101515.59;4881944;29;20327;-78
2022/11/15 08:21:17;;;;;;;69.32;36.80;;;;;;;11.22;76.23;101550.06;4910584;28;20055;-78
2022/11/15 08:23:55;;;;;;;75.03;38.13;;;;;;;11.24;76.20;101548.16;4857358;29;20051;-78
2022/11/15 08:26:34;;;;;;;65.70;36.40;;;;;;;11.25;76.32;101560.44;4859313;29;20295;-79
2022/11/15 08:29:12;;;;;;;61.15;35.03;;;;;;;11.06;76.30;101529.13;4873468;29;20403;-78
2022/11/15 08:31:56;;;;;;;73.70;37.60;;;;;;;11.14;76.48;101539.19;4853943;29;20816;-78
2022/11/15 08:34:26;;;;;;;70.88;37.17;;;;;;;11.29;76.34;101561.91;4854687;29;20133;-78
2022/11/15 08:37:03;;;;;;;75.60;36.92;;;;;;;11.11;76.05;101526.94;4871742;29;20144;-78
2022/11/15 08:39:53;;;;;;;71.25;37.22;;;;;;;11.05;77.26;101523.94;4885211;29;20063;-77
2022/11/15 08:42:26;;;;;;;78.43;37.15;;;;;;;10.96;76.97;101484.78;4870870;29;20473;-78
2022/11/15 08:45:03;;;;;;;75.60;37.70;;;;;;;11.35;77.03;101534.00;4884334;29;20051;-78
2022/11/15 08:47:43;;;;;;;68.20;36.90;;;;;;;11.35;76.00;101512.75;4869426;29;20067;-78
2022/11/15 08:50:17;;;;;;;71.60;37.42;;;;;;;11.52;76.15;101530.03;4869910;29;20700;-78
2022/11/15 08:52:49;;;;;;;71.10;37.47;;;;;;;11.20;76.25;101488.19;4836185;29;20149;-78
2022/11/15 08:55:37;;;;;;;71.68;35.65;;;;;;;11.56;75.30;101539.47;4842058;29;20070;-78
2022/11/15 08:58:07;;;;;;;74.90;35.75;;;;;;;11.55;73.93;101527.13;4855831;29;20163;-79
2022/11/15 09:00:34;;;;;;;70.13;35.13;;;;;;;10.78;73.93;101408.19;4860149;29;20299;-81
2022/11/15 09:03:09;;;;;;;70.57;33.92;;;;;;;11.43;73.41;101510.34;4854624;29;20087;-80
2022/11/15 09:05:37;;;;;;;66.68;35.15;;;;;;;10.78;73.39;101410.00;4868650;29;20070;-81
2022/11/15 09:08:11;;;;;;;64.63;34.25;;;;;;;11.44;74.14;101512.03;4865724;29;20490;-79
2022/11/15 09:11:23;;;;;;;63.42;36.05;;;;;;;11.56;74.29;101531.50;4888386;28;20044;-78
2022/11/15 09:13:56;;;;;;;70.28;35.42;;;;;;;11.51;74.51;101512.41;4882100;29;20110;-80
2022/11/15 09:16:27;;;;;;;68.43;35.92;;;;;;;11.63;74.17;101535.38;4868952;29;20836;-79
2022/11/15 09:18:54;;;;;;;73.88;38.72;;;;;;;11.68;73.82;101519.91;4867456;29;20064;-78
2022/11/15 09:21:46;;;;;;;78.20;39.15;;;;;;;11.65;73.73;101517.50;4874477;29;20508;-79
2022/11/15 09:24:19;;;;;;;84.55;40.42;;;;;;;11.72;74.01;101524.03;4872912;29;20511;-79
2022/11/15 09:26:56;;;;;;;73.53;38.45;;;;;;;11.73;73.74;101523.03;4871191;29;20734;-79
2022/11/15 09:29:36;;;;;;;73.35;38.65;;;;;;;11.49;73.68;101477.94;4867530;29;20673;-78
2022/11/15 09:32:30;;;;;;;74.47;39.42;;;;;;;11.78;73.70;101533.31;4869425;29;20424;-79
2022/11/15 09:35:16;;;;;;;79.13;41.75;;;;;;;11.80;74.26;101533.22;4859717;29;20711;-79
2022/11/15 09:38:04;;;;;;;79.35;40.33;;;;;;;11.83;73.55;101522.31;4865100;29;20484;-81
2022/11/15 09:40:45;;;;;;;82.40;41.60;;;;;;;11.67;73.73;101485.44;4859742;29;20582;-81
2022/11/15 09:44:03;;;;;;;87.93;45.03;;;;;;;11.95;73.07;101518.69;4870211;29;20395;-81
2022/11/15 09:47:10;;;;;;;87.78;46.42;;;;;;;12.04;72.18;101520.63;4877657;29;20829;-80
2022/11/15 09:49:57;;;;;;;96.10;49.47;;;;;;;11.92;73.08;101490.53;4888771;29;20222;-82
2022/11/15 09:52:47;;;;;;;93.43;47.58;;;;;;;12.01;72.69;101499.56;4867760;29;20147;-79
2022/11/15 09:55:34;;;;;;;95.20;47.30;;;;;;;11.28;72.49;101379.47;4869823;29;20052;-79
2022/11/15 09:59:02;;;;;;;90.95;46.83;;;;;;;12.13;72.56;101498.56;4868124;29;20976;-79
2022/11/15 10:02:19;;;;;;;96.57;48.30;;;;;;;11.99;72.42;101461.63;4864148;29;20629;-80
2022/11/15 10:05:10;;;;;;;102.53;51.78;;;;;;;12.32;72.46;101502.41;4845015;29;20060;-79
2022/11/15 10:08:38;;;;;;;105.22;51.90;;;;;;;12.32;72.43;101505.91;4847472;29;20306;-80
2022/11/15 10:11:39;;;;;;;106.85;52.20;;;;;;;12.38;72.09;101499.25;4838825;29;20593;-80
2022/11/15 10:14:31;;;;;;;98.28;50.65;;;;;;;12.27;71.77;101464.66;4847327;29;20224;-79
2022/11/15 10:17:22;;;;;;;111.65;54.55;;;;;;;12.14;72.65;101425.75;4849344;29;20515;-78
2022/11/15 10:20:13;;;;;;;97.82;54.80;;;;;;;12.51;72.57;101449.31;4834086;29;20542;-79
2022/11/15 10:23:14;;;;;;;102.00;54.45;;;;;;;12.59;71.41;101438.84;4849422;29;20282;-78
2022/11/15 10:25:44;;;;;;;104.43;56.20;;;;;;;12.82;71.85;101468.06;4835330;29;20543;-78
2022/11/15 10:28:29;;;;;;;102.15;52.67;;;;;;;13.07;70.96;101465.97;4845359;29;20964;-78
2022/11/15 10:31:25;;;;;;;107.65;53.72;;;;;;;12.92;71.05;101460.97;4832085;29;20048;-79
2022/11/15 10:34:20;;;;;;;107.72;55.95;;;;;;;12.84;71.29;101455.44;4825814;29;20352;-80
2022/11/15 10:37:03;;;;;;;104.60;56.60;;;;;;;12.81;71.40;101439.69;4828143;29;20566;-80
2022/11/15 10:39:36;;;;;;;100.72;54.78;;;;;;;12.81;71.89;101429.88;4834648;29;20321;-79
2022/11/15 10:42:29;;;;;;;99.45;54.33;;;;;;;12.82;70.07;101428.91;4812861;29;20421;-79
2022/11/15 10:45:46;;;;;;;97.40;54.60;;;;;;;12.99;70.10;101434.63;4830553;29;20059;-78
2022/11/15 10:48:15;;;;;;;106.57;57.92;;;;;;;12.98;70.29;101430.25;4812077;29;20592;-81
2022/11/15 10:50:51;;;;;;;110.13;54.67;;;;;;;12.86;70.28;101408.16;4812803;29;20465;-78
2022/11/15 10:53:45;;;;;;;106.60;56.10;;;;;;;12.95;70.56;101420.72;4811650;29;20491;-79
2022/11/15 10:56:26;;;;;;;104.90;57.03;;;;;;;12.42;71.24;101327.59;4823160;29;20970;-81
2022/11/15 10:59:04;;;;;;;108.50;55.30;;;;;;;12.94;71.21;101404.88;4822341;29;20490;-80
2022/11/15 11:01:46;;;;;;;99.70;55.92;;;;;;;13.03;71.29;101394.25;4817881;29;20064;-80
2022/11/15 11:04:15;;;;;;;;;;;;;;;13.00;71.26;101396.34;4824456;29;20202;-82
2022/11/15 11:06:58;;;;;;;99.80;53.95;;;;;;;13.13;71.45;101390.78;4832767;29;20629;-77
2022/11/15 11:09:42;;;;;;;102.05;56.50;;;;;;;13.13;72.93;101383.66;4833683;29;20653;-80
2022/11/15 11:12:11;;;;;;;100.93;54.25;;;;;;;13.15;73.09;101379.00;4849796;29;20142;-81
2022/11/15 11:14:43;;;;;;;103.07;55.95;;;;;;;13.18;72.66;101383.22;4860032;29;20226;-79
2022/11/15 11:17:21;;;;;;;109.35;57.15;;;;;;;12.98;72.23;101351.16;4851179;29;20052;-81
2022/11/15 11:20:31;;;;;;;109.25;55.70;;;;;;;13.06;72.42;101369.16;4859127;29;20488;-79
2022/11/15 11:23:20;;;;;;;110.63;56.35;;;;;;;12.99;72.75;101362.69;4846603;29;20479;-80
2022/11/15 11:26:23;;;;;;;105.65;54.78;;;;;;;12.89;72.67;101335.97;4846669;29;20178;-79
2022/11/15 11:29:15;;;;;;;107.00;57.22;;;;;;;12.96;72.63;101347.78;4817777;29;20052;-80
2022/11/15 11:32:15;;;;;;;100.43;54.83;;;;;;;12.24;74.08;101228.00;4839122;29;20498;-79
2022/11/15 11:35:15;;;;;;;104.10;56.10;;;;;;;13.03;74.44;101340.09;4854780;29;20521;-79
2022/11/15 11:37:57;;;;;;;98.97;55.03;;;;;;;12.95;75.41;101329.25;4837918;29;20387;-80
2022/11/15 11:40:33;;;;;;;105.65;56.33;;;;;;;12.65;74.44;101290.16;4867172;29;20517;-79
2022/11/15 11:43:25;;;;;;;103.13;56.95;;;;;;;12.97;74.53;101333.47;4866437;29;20070;-80
2022/11/15 11:46:11;;;;;;;105.78;53.70;;;;;;;12.72;75.04;101291.28;4849120;29;20608;-80
2022/11/15 11:49:04;;;;;;;106.63;55.58;;;;;;;12.98;75.28;101319.16;4861882;29;20048;-80
2022/11/15 11:51:45;;;;;;;112.95;58.53;;;;;;;12.62;74.58;101253.94;4869819;29;21187;-81
2022/11/15 11:54:40;;;;;;;109.50;57.05;;;;;;;13.03;74.98;101322.28;4878834;29;20134;-80
2022/11/15 11:57:38;;;;;;;108.00;59.70;;;;;;;12.86;76.53;101288.25;4861977;29;20384;-81
2022/11/15 12:00:27;;;;;;;105.87;59.40;;;;;;;12.73;75.74;101269.84;4877413;29;20433;-80
2022/11/15 12:03:16;;;;;;;110.82;59.17;;;;;;;12.75;76.32;101280.38;4877302;29;20058;-81
2022/11/15 12:05:56;;;;;;;112.82;59.70;;;;;;;12.88;76.59;101299.63;4874048;29;20450;-81
2022/11/15 12:08:46;;;;;;;112.40;57.30;;;;;;;12.67;76.49;101264.22;4883477;29;20522;-80
2022/11/15 12:11:44;;;;;;;112.40;56.40;;;;;;;12.98;76.80;101315.66;4880894;29;20266;-81
2022/11/15 12:14:34;;;;;;;108.10;57.95;;;;;;;12.61;76.24;101255.78;4900268;29;20387;-78